Time;durP1;ratioP1;P1;durP2;ratioP2;P2;SDS_P1;SDS_P2;PMS_P1;PMS_P2;Temp;Humidity;BMP_temperature;BMP_pressure;BME280_temperature;BME280_humidity;BME280_pressure;Samples;Min_cycle;Max_cycle;Signal;HPM_P1;HPM_P2
2022/09/28 00:00:09;;;;;;;1.17;0.90;;;;;;;;;;4986837;28;20677;-68
2022/09/28 00:02:34;;;;;;;1.03;0.80;;;;;;;;;;4990316;28;20229;-70
2022/09/28 00:05:01;;;;;;;2.90;1.20;;;;;;;;;;4993555;28;20210;-70
2022/09/28 00:07:26;;;;;;;2.47;2.27;;;;;;;;;;4992817;28;20282;-68
2022/09/28 00:09:52;;;;;;;1.63;0.97;;;;;;;;;;4993059;28;20175;-69
2022/09/28 00:12:17;;;;;;;3.37;1.20;;;;;;;;;;4973583;28;20204;-71
2022/09/28 00:14:43;;;;;;;2.17;1.37;;;;;;;;;;4974758;28;20179;-71
2022/09/28 00:17:08;;;;;;;1.43;1.10;;;;;;;;;;4992489;28;20203;-68
2022/09/28 00:19:33;;;;;;;1.07;0.93;;;;;;;;;;4989705;28;20274;-68
2022/09/28 00:21:59;;;;;;;1.10;0.97;;;;;;;;;;4991194;28;20210;-71
2022/09/28 00:24:24;;;;;;;2.73;1.40;;;;;;;;;;4990770;28;20207;-70
2022/09/28 00:26:51;;;;;;;1.43;1.13;;;;;;;;;;4991818;28;20241;-71
2022/09/28 00:29:16;;;;;;;2.70;1.20;;;;;;;;;;4990493;28;20184;-70
2022/09/28 00:31:41;;;;;;;1.37;0.93;;;;;;;;;;4977466;28;20219;-70
2022/09/28 00:34:06;;;;;;;3.87;1.20;;;;;;;;;;4988822;28;20210;-70
2022/09/28 00:36:32;;;;;;;2.47;1.60;;;;;;;;;;4986645;28;20637;-70
2022/09/28 00:38:57;;;;;;;2.30;1.97;;;;;;;;;;4991530;28;20250;-71
2022/09/28 00:41:26;;;;;;;4.17;2.20;;;;;;;;;;4989893;28;20200;-70
2022/09/28 00:43:52;;;;;;;3.07;2.37;;;;;;;;;;4988913;28;20646;-70
2022/09/28 00:46:17;;;;;;;4.03;2.80;;;;;;;;;;4987004;28;20184;-70
2022/09/28 00:48:48;;;;;;;4.17;3.00;;;;;;;;;;4990432;28;20187;-70
2022/09/28 00:51:13;;;;;;;4.27;3.20;;;;;;;;;;4990386;28;20211;-68
2022/09/28 00:53:42;;;;;;;4.60;3.00;;;;;;;;;;4984384;28;20195;-71
2022/09/28 00:56:10;;;;;;;6.03;3.17;;;;;;;;;;4987661;28;20183;-70
2022/09/28 00:58:39;;;;;;;5.10;3.73;;;;;;;;;;4989870;28;20271;-68
2022/09/28 01:01:04;;;;;;;3.73;3.37;;;;;;;;;;4990251;28;20716;-70
2022/09/28 01:03:31;;;;;;;3.70;3.40;;;;;;;;;;4990501;28;20195;-71
2022/09/28 01:05:57;;;;;;;4.37;3.97;;;;;;;;;;4992017;28;20221;-71
2022/09/28 01:08:23;;;;;;;5.30;4.00;;;;;;;;;;4992137;28;20180;-71
2022/09/28 01:10:49;;;;;;;6.63;4.13;;;;;;;;;;4988532;28;20186;-71
2022/09/28 01:13:15;;;;;;;10.17;4.20;;;;;;;;;;4990789;28;20575;-71
2022/09/28 01:15:45;;;;;;;7.00;5.03;;;;;;;;;;4991532;28;20172;-70
2022/09/28 01:18:13;;;;;;;6.57;4.50;;;;;;;;;;4990961;28;20258;-70
2022/09/28 01:20:42;;;;;;;10.90;5.33;;;;;;;;;;4989421;28;20202;-71
2022/09/28 01:23:24;;;;;;;8.03;5.30;;;;;;;;;;4972604;28;20766;-71
2022/09/28 01:25:49;;;;;;;7.37;4.73;;;;;;;;;;4988271;28;20172;-71
2022/09/28 01:28:16;;;;;;;5.57;4.83;;;;;;;;;;4988701;28;20207;-70
2022/09/28 01:31:02;;;;;;;6.50;4.50;;;;;;;;;;4989225;28;20191;-70
2022/09/28 01:33:31;;;;;;;8.07;4.00;;;;;;;;;;4990260;28;20211;-70
2022/09/28 01:36:03;;;;;;;6.57;4.00;;;;;;;;;;4991583;28;20244;-70
2022/09/28 01:38:30;;;;;;;6.03;4.33;;;;;;;;;;4989534;28;20850;-70
2022/09/28 01:40:58;;;;;;;6.30;4.10;;;;;;;;;;4988875;28;20204;-70
2022/09/28 01:43:24;;;;;;;5.23;3.87;;;;;;;;;;4989769;28;20553;-70
2022/09/28 01:45:52;;;;;;;5.87;3.87;;;;;;;;;;4981262;28;20270;-69
2022/09/28 01:48:21;;;;;;;4.13;3.10;;;;;;;;;;4982325;28;20191;-70
2022/09/28 01:50:49;;;;;;;3.97;3.30;;;;;;;;;;4987841;28;20179;-70
2022/09/28 01:53:44;;;;;;;4.20;3.57;;;;;;;;;;4987141;28;20677;-70
2022/09/28 01:56:16;;;;;;;3.33;3.03;;;;;;;;;;4948952;28;20589;-70
2022/09/28 01:58:48;;;;;;;4.13;2.90;;;;;;;;;;4990069;28;20176;-70
2022/09/28 02:01:19;;;;;;;2.97;2.67;;;;;;;;;;4988903;28;20278;-70
2022/09/28 02:03:50;;;;;;;3.03;2.37;;;;;;;;;;4985957;28;20267;-70
2022/09/28 02:06:24;;;;;;;4.63;2.63;;;;;;;;;;4986020;28;20184;-70
2022/09/28 02:08:52;;;;;;;5.47;2.07;;;;;;;;;;4986804;28;20184;-70
2022/09/28 02:11:20;;;;;;;2.50;2.30;;;;;;;;;;4968549;28;20274;-70
2022/09/28 02:13:52;;;;;;;3.67;2.60;;;;;;;;;;4990126;28;20331;-70
2022/09/28 02:16:17;;;;;;;3.77;2.47;;;;;;;;;;4990882;28;20179;-70
2022/09/28 02:18:43;;;;;;;2.63;2.23;;;;;;;;;;4989212;28;20262;-70
2022/09/28 02:21:11;;;;;;;2.87;2.17;;;;;;;;;;4985913;28;20203;-70
2022/09/28 02:23:39;;;;;;;3.37;2.30;;;;;;;;;;4988999;28;21531;-69
2022/09/28 02:26:07;;;;;;;2.40;1.63;;;;;;;;;;4988651;28;20552;-70
2022/09/28 02:28:33;;;;;;;2.23;1.70;;;;;;;;;;4988288;28;20255;-70
2022/09/28 02:30:58;;;;;;;1.93;1.67;;;;;;;;;;4989071;28;20203;-70
2022/09/28 02:33:27;;;;;;;4.97;2.50;;;;;;;;;;4989632;28;20211;-70
2022/09/28 02:35:52;;;;;;;2.53;1.60;;;;;;;;;;4988579;28;20179;-70
2022/09/28 02:38:17;;;;;;;1.87;1.50;;;;;;;;;;4989592;28;20191;-70
2022/09/28 02:40:52;;;;;;;2.23;1.60;;;;;;;;;;4988515;28;20565;-70
2022/09/28 02:43:40;;;;;;;1.47;1.17;;;;;;;;;;4988245;28;20191;-70
2022/09/28 02:46:15;;;;;;;1.53;1.00;;;;;;;;;;4986824;28;20190;-70
2022/09/28 02:48:52;;;;;;;2.73;1.43;;;;;;;;;;4990059;28;20277;-71
2022/09/28 02:51:36;;;;;;;2.13;1.07;;;;;;;;;;4985009;28;20329;-70
2022/09/28 02:54:01;;;;;;;1.87;1.33;;;;;;;;;;4983240;28;20748;-70
2022/09/28 02:56:45;;;;;;;1.60;1.10;;;;;;;;;;4992586;28;20271;-70
2022/09/28 02:59:16;;;;;;;2.50;1.33;;;;;;;;;;4992362;28;20610;-70
2022/09/28 03:01:41;;;;;;;2.03;1.10;;;;;;;;;;4992098;28;20223;-70
2022/09/28 03:04:09;;;;;;;1.87;0.80;;;;;;;;;;4976055;28;20204;-70
2022/09/28 03:06:57;;;;;;;1.13;0.83;;;;;;;;;;4990382;28;20211;-70
2022/09/28 03:09:25;;;;;;;2.03;0.70;;;;;;;;;;4993608;28;20183;-70
2022/09/28 03:12:03;;;;;;;0.70;0.63;;;;;;;;;;4990896;28;20278;-70
2022/09/28 03:14:29;;;;;;;1.87;0.70;;;;;;;;;;4993856;28;20535;-70
2022/09/28 03:16:54;;;;;;;0.90;0.53;;;;;;;;;;4980407;28;20183;-70
2022/09/28 03:19:23;;;;;;;6.90;1.53;;;;;;;;;;4993404;28;20175;-70
2022/09/28 03:21:48;;;;;;;0.47;0.40;;;;;;;;;;4993508;23;20227;-74
2022/09/28 03:24:13;;;;;;;2.00;0.30;;;;;;;;;;5007502;28;20571;-74
2022/09/28 03:26:39;;;;;;;0.60;0.30;;;;;;;;;;5013809;28;20179;-73
2022/09/28 03:29:04;;;;;;;0.50;0.40;;;;;;;;;;5012430;28;20214;-73
2022/09/28 03:31:29;;;;;;;0.60;0.30;;;;;;;;;;5016339;28;20222;-74
2022/09/28 03:33:54;;;;;;;0.30;0.30;;;;;;;;;;5015479;28;20703;-73
2022/09/28 03:36:20;;;;;;;0.30;0.30;;;;;;;;;;5019185;28;20238;-73
2022/09/28 03:38:45;;;;;;;1.30;0.40;;;;;;;;;;5022150;28;20233;-74
2022/09/28 03:41:10;;;;;;;0.50;0.30;;;;;;;;;;5023192;28;20206;-72
2022/09/28 03:43:35;;;;;;;1.03;0.40;;;;;;;;;;5025268;28;20202;-75
2022/09/28 03:46:01;;;;;;;1.93;0.33;;;;;;;;;;5015867;28;20170;-74
2022/09/28 03:48:27;;;;;;;0.90;0.40;;;;;;;;;;5022523;28;20675;-74
2022/09/28 03:50:53;;;;;;;0.80;0.53;;;;;;;;;;5032454;28;20253;-73
2022/09/28 03:53:18;;;;;;;1.70;0.33;;;;;;;;;;5012643;28;20199;-71
2022/09/28 03:55:44;;;;;;;1.30;0.40;;;;;;;;;;5030517;28;20551;-74
2022/09/28 03:58:09;;;;;;;0.83;0.27;;;;;;;;;;5006491;28;20186;-72
2022/09/28 04:00:36;;;;;;;1.20;0.40;;;;;;;;;;5008675;28;20310;-76
2022/09/28 04:03:01;;;;;;;0.67;0.30;;;;;;;;;;5016532;28;20295;-73
2022/09/28 04:05:26;;;;;;;0.27;0.27;;;;;;;;;;5027590;28;20269;-73
2022/09/28 04:07:54;;;;;;;0.73;0.27;;;;;;;;;;5024155;28;20170;-74
2022/09/28 04:10:20;;;;;;;1.07;0.40;;;;;;;;;;5025042;28;20210;-73
2022/09/28 04:12:45;;;;;;;0.20;0.20;;;;;;;;;;5024765;28;20241;-72
2022/09/28 04:15:10;;;;;;;2.30;0.20;;;;;;;;;;5025464;28;20651;-72
2022/09/28 04:17:35;;;;;;;0.60;0.23;;;;;;;;;;5023815;28;20175;-74
2022/09/28 04:20:02;;;;;;;0.27;0.27;;;;;;;;;;5021182;28;20244;-75
2022/09/28 04:22:27;;;;;;;0.23;0.23;;;;;;;;;;5001408;28;20229;-74
2022/09/28 04:24:52;;;;;;;0.80;0.43;;;;;;;;;;5000656;28;20174;-74
2022/09/28 04:30:01;;;;;;;1.37;0.73;;;;;;;;;;5004744;28;20241;-74
2022/09/28 04:32:26;;;;;;;0.70;0.70;;;;;;;;;;5017198;28;20203;-72
2022/09/28 04:34:51;;;;;;;0.40;0.40;;;;;;;;;;4997138;28;20171;-72
2022/09/28 04:37:17;;;;;;;1.40;0.80;;;;;;;;;;5011727;28;20190;-74
2022/09/28 04:39:42;;;;;;;3.00;0.67;;;;;;;;;;5004838;28;20279;-74
2022/09/28 04:42:08;;;;;;;1.20;1.03;;;;;;;;;;5013631;28;20226;-74
2022/09/28 04:44:33;;;;;;;1.10;0.80;;;;;;;;;;5015262;28;20189;-73
2022/09/28 04:46:59;;;;;;;2.63;0.73;;;;;;;;;;5022188;28;20266;-73
2022/09/28 04:49:24;;;;;;;0.70;0.70;;;;;;;;;;5011954;28;20187;-73
2022/09/28 04:51:49;;;;;;;1.00;0.60;;;;;;;;;;5020917;28;20195;-73
2022/09/28 04:54:14;;;;;;;0.93;0.80;;;;;;;;;;5009931;28;20199;-73
2022/09/28 04:56:40;;;;;;;1.60;0.70;;;;;;;;;;5018598;28;20173;-74
2022/09/28 04:59:05;;;;;;;0.87;0.70;;;;;;;;;;5012994;28;20183;-73
2022/09/28 05:01:31;;;;;;;0.87;0.60;;;;;;;;;;5016378;28;20581;-74
2022/09/28 05:03:56;;;;;;;1.07;0.80;;;;;;;;;;5017664;28;20185;-74
2022/09/28 05:06:21;;;;;;;0.50;0.50;;;;;;;;;;5014726;28;20694;-72
2022/09/28 05:08:47;;;;;;;0.83;0.60;;;;;;;;;;5019074;28;20552;-73
2022/09/28 05:11:12;;;;;;;0.70;0.40;;;;;;;;;;4993471;28;20210;-72
2022/09/28 05:13:40;;;;;;;3.30;0.60;;;;;;;;;;5020377;28;20194;-74
2022/09/28 05:16:06;;;;;;;1.67;0.93;;;;;;;;;;5011579;28;20653;-74
2022/09/28 05:18:31;;;;;;;1.53;0.67;;;;;;;;;;5016360;28;20478;-74
2022/09/28 05:20:56;;;;;;;0.47;0.47;;;;;;;;;;5007709;28;20621;-72
2022/09/28 05:23:22;;;;;;;0.97;0.53;;;;;;;;;;5007954;28;20237;-72
2022/09/28 05:25:47;;;;;;;1.27;0.47;;;;;;;;;;5017492;28;20614;-74
2022/09/28 05:28:12;;;;;;;2.57;0.90;;;;;;;;;;5011517;28;20193;-74
2022/09/28 05:30:37;;;;;;;1.80;0.63;;;;;;;;;;5013618;28;20198;-72
2022/09/28 05:33:03;;;;;;;2.40;0.60;;;;;;;;;;5014157;28;20218;-72
2022/09/28 05:35:28;;;;;;;1.47;0.90;;;;;;;;;;5013658;28;20179;-74
2022/09/28 05:37:54;;;;;;;1.23;0.70;;;;;;;;;;5012360;28;20583;-74
2022/09/28 05:40:19;;;;;;;2.83;0.63;;;;;;;;;;5007472;28;20167;-74
2022/09/28 05:42:44;;;;;;;0.83;0.60;;;;;;;;;;5001202;28;20203;-75
2022/09/28 05:45:09;;;;;;;0.93;0.73;;;;;;;;;;5012023;28;20649;-72
2022/09/28 05:47:38;;;;;;;0.50;0.50;;;;;;;;;;5016643;28;20195;-74
2022/09/28 05:50:04;;;;;;;0.90;0.67;;;;;;;;;;5012346;28;20183;-75
2022/09/28 05:52:29;;;;;;;0.90;0.87;;;;;;;;;;5013261;28;20621;-72
2022/09/28 05:54:54;;;;;;;4.07;1.17;;;;;;;;;;5016218;28;20176;-74
2022/09/28 05:57:20;;;;;;;1.30;0.70;;;;;;;;;;5016944;28;20251;-72
2022/09/28 05:59:45;;;;;;;0.80;0.77;;;;;;;;;;5010678;28;20180;-72
2022/09/28 06:02:10;;;;;;;1.83;0.80;;;;;;;;;;5004834;28;20363;-71
2022/09/28 06:04:35;;;;;;;2.27;1.27;;;;;;;;;;5015135;28;20185;-75
2022/09/28 06:07:00;;;;;;;1.30;1.00;;;;;;;;;;5005893;28;20186;-72
2022/09/28 06:09:26;;;;;;;2.70;1.80;;;;;;;;;;5013418;28;20560;-74
2022/09/28 06:11:51;;;;;;;3.37;2.70;;;;;;;;;;5010928;28;20186;-74
2022/09/28 06:14:17;;;;;;;3.70;1.70;;;;;;;;;;5004766;28;20617;-72
2022/09/28 06:16:42;;;;;;;6.47;2.00;;;;;;;;;;5010087;28;20170;-72
2022/09/28 06:19:08;;;;;;;3.43;2.40;;;;;;;;;;5006393;28;20183;-72
2022/09/28 06:21:34;;;;;;;4.07;2.27;;;;;;;;;;5009177;28;20233;-72
2022/09/28 06:24:00;;;;;;;2.77;2.07;;;;;;;;;;4992397;28;20202;-75
2022/09/28 06:26:25;;;;;;;8.07;2.83;;;;;;;;;;5010292;28;20187;-72
2022/09/28 06:28:50;;;;;;;2.47;2.10;;;;;;;;;;5018512;28;20210;-74
2022/09/28 06:31:16;;;;;;;2.73;1.97;;;;;;;;;;5011906;28;20637;-74
2022/09/28 06:33:41;;;;;;;2.60;1.57;;;;;;;;;;5020543;28;20197;-74
2022/09/28 06:36:06;;;;;;;2.43;1.97;;;;;;;;;;5015834;28;20672;-74
2022/09/28 06:38:32;;;;;;;3.30;1.90;;;;;;;;;;5010420;28;20179;-74
2022/09/28 06:40:57;;;;;;;1.97;1.40;;;;;;;;;;5013935;28;20177;-74
2022/09/28 06:43:22;;;;;;;5.23;1.63;;;;;;;;;;5021280;28;20213;-72
2022/09/28 06:45:51;;;;;;;3.57;1.40;;;;;;;;;;5000524;28;20174;-73
2022/09/28 06:48:17;;;;;;;2.57;1.37;;;;;;;;;;5001278;28;20178;-72
2022/09/28 06:50:42;;;;;;;1.50;1.30;;;;;;;;;;4997129;28;20653;-73
2022/09/28 06:53:09;;;;;;;1.73;1.30;;;;;;;;;;5001181;28;20581;-73
2022/09/28 06:55:37;;;;;;;1.77;1.27;;;;;;;;;;5009336;28;20653;-73
2022/09/28 06:58:03;;;;;;;2.30;1.40;;;;;;;;;;4995818;28;20665;-74
2022/09/28 07:00:31;;;;;;;4.37;1.50;;;;;;;;;;5004843;28;20650;-73
2022/09/28 07:02:56;;;;;;;2.80;1.50;;;;;;;;;;5010434;28;20213;-73
2022/09/28 07:05:25;;;;;;;6.40;2.23;;;;;;;;;;5017852;28;20182;-74
2022/09/28 07:07:54;;;;;;;2.60;1.30;;;;;;;;;;5014190;28;20471;-73
2022/09/28 07:10:19;;;;;;;4.27;1.20;;;;;;;;;;5016505;28;20206;-72
2022/09/28 07:12:45;;;;;;;1.57;1.07;;;;;;;;;;5018968;28;20237;-73
2022/09/28 07:15:11;;;;;;;2.13;1.23;;;;;;;;;;4998404;28;20722;-72
2022/09/28 07:17:36;;;;;;;1.53;0.90;;;;;;;;;;5020064;28;20175;-74
2022/09/28 07:20:02;;;;;;;1.80;1.10;;;;;;;;;;5025443;28;20175;-73
2022/09/28 07:22:27;;;;;;;2.27;1.10;;;;;;;;;;5001820;28;20214;-73
2022/09/28 07:24:52;;;;;;;2.00;1.10;;;;;;;;;;5007478;28;20182;-73
2022/09/28 07:27:18;;;;;;;2.00;0.77;;;;;;;;;;4999068;28;20561;-73
2022/09/28 07:29:44;;;;;;;1.25;0.80;;;;;;;;;;4998434;28;20183;-73
2022/09/28 07:32:09;;;;;;;1.10;1.00;;;;;;;;;;5011106;28;20194;-73
2022/09/28 07:34:43;;;;;;;1.13;0.63;;;;;;;;;;5006839;28;20584;-73
2022/09/28 07:37:10;;;;;;;3.83;1.15;;;;;;;;;;5011870;28;20245;-73
2022/09/28 07:41:10;;;;;;;1.65;0.85;;;;;;;;;;5006815;28;20176;-71
2022/09/28 07:42:21;;;;;;;1.45;0.50;;;;;;;;;;5017613;28;20294;-71
2022/09/28 07:44:46;;;;;;;1.30;0.50;;;;;;;;;;5018027;28;20283;-75
2022/09/28 07:47:12;;;;;;;1.60;1.48;;;;;;;;;;5012298;28;20187;-74
2022/09/28 07:49:37;;;;;;;0.90;0.68;;;;;;;;;;5003767;28;20224;-71
2022/09/28 07:52:02;;;;;;;1.45;0.60;;;;;;;;;;5010106;28;20206;-74
2022/09/28 07:54:29;;;;;;;0.73;0.50;;;;;;;;;;5013394;28;20250;-73
2022/09/28 07:56:54;;;;;;;2.08;0.70;;;;;;;;;;5018855;28;20167;-73
2022/09/28 07:59:19;;;;;;;2.60;0.80;;;;;;;;;;5001535;28;20242;-73
2022/09/28 08:01:45;;;;;;;0.88;0.57;;;;;;;;;;5010039;28;20261;-71
2022/09/28 08:04:11;;;;;;;0.65;0.47;;;;;;;;;;5014854;28;20183;-74
2022/09/28 08:06:36;;;;;;;2.75;1.00;;;;;;;;;;5017562;28;20195;-73
2022/09/28 08:09:01;;;;;;;0.52;0.52;;;;;;;;;;5003045;28;20191;-72
2022/09/28 08:11:26;;;;;;;1.48;0.82;;;;;;;;;;4996989;28;20194;-72
2022/09/28 08:13:55;;;;;;;0.93;0.57;;;;;;;;;;5011247;28;20206;-72
2022/09/28 08:16:20;;;;;;;0.80;0.52;;;;;;;;;;5009049;28;20643;-72
2022/09/28 08:18:47;;;;;;;1.08;0.70;;;;;;;;;;5021738;28;20170;-71
2022/09/28 08:23:56;;;;;;;0.80;0.50;;;;;;;;;;5005774;28;20627;-72
2022/09/28 08:26:21;;;;;;;0.63;0.32;;;;;;;;;;5014061;28;20207;-72
2022/09/28 08:28:46;;;;;;;1.80;0.70;;;;;;;;;;5017500;28;20561;-72
2022/09/28 08:31:11;;;;;;;0.85;0.50;;;;;;;;;;5013030;28;20206;-72
2022/09/28 08:33:37;;;;;;;1.90;0.90;;;;;;;;;;5018996;28;20210;-71
2022/09/28 08:36:03;;;;;;;2.40;1.48;;;;;;;;;;4995288;28;20562;-72
2022/09/28 08:38:29;;;;;;;2.72;0.70;;;;;;;;;;5008531;28;20171;-72
2022/09/28 08:40:57;;;;;;;1.85;0.60;;;;;;;;;;5010649;28;20182;-72
2022/09/28 08:43:35;;;;;;;3.25;0.60;;;;;;;;;;5017649;28;20251;-72
2022/09/28 08:46:01;;;;;;;1.20;0.50;;;;;;;;;;5019782;28;20190;-72
2022/09/28 08:48:44;;;;;;;0.90;0.47;;;;;;;;;;5024467;28;20174;-70
2022/09/28 08:51:14;;;;;;;2.13;0.60;;;;;;;;;;5013352;28;20179;-73
2022/09/28 08:53:43;;;;;;;2.10;0.80;;;;;;;;;;5012929;28;20248;-70
2022/09/28 08:56:14;;;;;;;1.27;0.55;;;;;;;;;;5017580;28;20189;-71
2022/09/28 08:58:42;;;;;;;1.95;0.40;;;;;;;;;;4998378;28;20660;-70
2022/09/28 09:01:15;;;;;;;0.47;0.40;;;;;;;;;;5019304;28;20182;-70
2022/09/28 09:03:43;;;;;;;2.88;0.40;;;;;;;;;;5013780;28;20189;-70
2022/09/28 09:06:17;;;;;;;0.52;0.38;;;;;;;;;;5017133;28;20179;-70
2022/09/28 09:09:09;;;;;;;0.93;0.30;;;;;;;;;;5013810;28;20190;-70
2022/09/28 09:11:34;;;;;;;0.93;0.30;;;;;;;;;;4974339;28;20222;-70
2022/09/28 09:13:59;;;;;;;0.33;0.27;;;;;;;;;;5018977;28;20194;-71
2022/09/28 09:16:24;;;;;;;0.90;0.40;;;;;;;;;;5008308;28;20435;-73
2022/09/28 09:18:58;;;;;;;0.43;0.30;;;;;;;;;;5022032;28;20451;-70
2022/09/28 09:24:02;;;;;;;2.40;0.50;;;;;;;;;;4988687;28;20219;-69
2022/09/28 09:26:38;;;;;;;0.45;0.30;;;;;;;;;;4991854;28;20179;-69
2022/09/28 09:29:22;;;;;;;0.82;0.20;;;;;;;;;;4998599;28;20245;-69
2022/09/28 09:31:50;;;;;;;2.15;0.28;;;;;;;;;;4991583;28;20199;-69
2022/09/28 09:34:18;;;;;;;0.55;0.20;;;;;;;;;;4993647;28;20579;-69
2022/09/28 09:36:49;;;;;;;0.25;0.20;;;;;;;;;;4990895;28;20211;-69
2022/09/28 09:39:31;;;;;;;1.40;0.20;;;;;;;;;;4995806;28;20184;-69
2022/09/28 09:42:08;;;;;;;0.55;0.20;;;;;;;;;;4981578;28;20210;-69
2022/09/28 09:44:43;;;;;;;1.38;0.32;;;;;;;;;;4988839;28;20656;-69
2022/09/28 09:47:11;;;;;;;0.60;0.45;;;;;;;;;;4988065;28;20669;-69
2022/09/28 09:49:39;;;;;;;0.73;0.30;;;;;;;;;;4988991;28;20626;-69
2022/09/28 09:52:04;;;;;;;0.60;0.35;;;;;;;;;;4988660;28;20240;-69
2022/09/28 09:54:35;;;;;;;1.27;0.40;;;;;;;;;;4983654;28;20773;-69
2022/09/28 09:57:11;;;;;;;0.40;0.20;;;;;;;;;;4988697;28;20459;-69
2022/09/28 09:59:38;;;;;;;1.38;0.20;;;;;;;;;;4986282;28;20183;-69
2022/09/28 10:02:23;;;;;;;0.65;0.32;;;;;;;;;;4989437;28;20222;-69
2022/09/28 10:04:51;;;;;;;0.77;0.20;;;;;;;;;;4985303;28;20633;-69
2022/09/28 10:07:25;;;;;;;1.42;0.35;;;;;;;;;;4968056;28;20636;-69
2022/09/28 10:09:51;;;;;;;0.47;0.30;;;;;;;;;;4981427;28;20207;-69
2022/09/28 10:12:20;;;;;;;0.47;0.20;;;;;;;;;;4992417;28;20199;-69
2022/09/28 10:14:45;;;;;;;0.60;0.22;;;;;;;;;;4982747;28;20218;-69
2022/09/28 10:17:12;;;;;;;0.63;0.25;;;;;;;;;;4985999;28;20175;-69
2022/09/28 10:19:37;;;;;;;0.98;0.30;;;;;;;;;;4988610;28;20683;-69
2022/09/28 10:22:03;;;;;;;0.85;0.20;;;;;;;;;;4989416;28;20278;-70
2022/09/28 10:24:31;;;;;;;1.00;0.25;;;;;;;;;;4990451;28;20188;-69
2022/09/28 10:27:01;;;;;;;0.60;0.10;;;;;;;;;;4990007;28;20175;-69
2022/09/28 10:29:32;;;;;;;0.40;0.25;;;;;;;;;;4989124;28;20281;-69
2022/09/28 10:31:58;;;;;;;1.60;0.10;;;;;;;;;;4988136;28;20191;-69
2022/09/28 10:34:27;;;;;;;3.30;0.20;;;;;;;;;;4981970;28;20732;-69
2022/09/28 10:36:59;;;;;;;0.20;0.20;;;;;;;;;;4983758;28;20227;-69
2022/09/28 10:39:34;;;;;;;0.13;0.10;;;;;;;;;;4988554;28;20255;-69
2022/09/28 10:42:03;;;;;;;0.85;0.10;;;;;;;;;;4971584;28;20222;-69
2022/09/28 10:44:30;;;;;;;0.80;0.15;;;;;;;;;;4992077;28;20180;-69
2022/09/28 10:46:58;;;;;;;1.05;0.10;;;;;;;;;;4989780;28;20171;-69
2022/09/28 10:49:24;;;;;;;1.00;0.10;;;;;;;;;;4983448;28;20191;-68
2022/09/28 10:51:50;;;;;;;1.77;0.20;;;;;;;;;;4985881;28;20210;-68
2022/09/28 10:54:17;;;;;;;0.32;0.10;;;;;;;;;;4975072;28;20208;-69
2022/09/28 10:56:43;;;;;;;0.45;0.17;;;;;;;;;;4986884;28;20176;-69
2022/09/28 10:59:26;;;;;;;0.20;0.10;;;;;;;;;;4984843;28;20243;-69
2022/09/28 11:01:56;;;;;;;1.60;0.20;;;;;;;;;;4986714;28;20196;-69
2022/09/28 11:04:25;;;;;;;0.38;0.20;;;;;;;;;;4986922;28;20183;-69
2022/09/28 11:06:50;;;;;;;0.17;0.10;;;;;;;;;;4990491;28;20641;-69
2022/09/28 11:09:26;;;;;;;2.13;0.28;;;;;;;;;;4990556;28;20192;-69
2022/09/28 11:11:51;;;;;;;0.38;0.10;;;;;;;;;;4981213;28;20191;-69
2022/09/28 11:14:26;;;;;;;0.20;0.10;;;;;;;;;;4988852;28;20199;-69
2022/09/28 11:17:09;;;;;;;0.50;0.20;;;;;;;;;;4987758;28;20175;-69
2022/09/28 11:19:35;;;;;;;2.38;0.63;;;;;;;;;;4975755;28;20179;-69
2022/09/28 11:22:00;;;;;;;0.82;0.50;;;;;;;;;;4995223;28;20211;-69
2022/09/28 11:24:25;;;;;;;0.43;0.10;;;;;;;;;;4992195;28;20195;-69
2022/09/28 11:26:53;;;;;;;1.05;0.10;;;;;;;;;;4987536;28;20203;-69
2022/09/28 11:29:19;;;;;;;0.52;0.20;;;;;;;;;;4992361;28;20191;-69
2022/09/28 11:31:45;;;;;;;1.10;0.55;;;;;;;;;;4989232;28;20269;-69
2022/09/28 11:34:15;;;;;;;0.52;0.30;;;;;;;;;;4982699;28;20683;-69
2022/09/28 11:36:59;;;;;;;0.60;0.20;;;;;;;;;;4991151;28;20307;-69
2022/09/28 11:39:45;;;;;;;0.40;0.10;;;;;;;;;;4987745;28;20180;-70
2022/09/28 11:42:10;;;;;;;0.73;0.20;;;;;;;;;;4948488;28;20261;-69
2022/09/28 11:44:36;;;;;;;1.43;0.20;;;;;;;;;;4986560;28;20188;-69
2022/09/28 11:47:14;;;;;;;0.28;0.10;;;;;;;;;;4986830;28;20428;-69
2022/09/28 11:49:40;;;;;;;0.25;0.10;;;;;;;;;;4989292;28;20460;-69
2022/09/28 11:52:21;;;;;;;0.20;0.10;;;;;;;;;;4986881;28;20253;-69
2022/09/28 11:54:51;;;;;;;0.43;0.20;;;;;;;;;;4986956;28;20564;-69
2022/09/28 11:57:17;;;;;;;0.20;0.10;;;;;;;;;;4967121;28;20712;-69
2022/09/28 12:00:04;;;;;;;0.30;0.10;;;;;;;;;;4974891;28;20460;-69
2022/09/28 12:02:40;;;;;;;0.52;0.17;;;;;;;;;;4967675;28;20204;-69
2022/09/28 12:05:08;;;;;;;0.50;0.20;;;;;;;;;;4992971;28;20245;-70
2022/09/28 12:07:36;;;;;;;0.10;0.10;;;;;;;;;;4995707;28;20203;-69
2022/09/28 12:10:01;;;;;;;0.10;0.10;;;;;;;;;;4991372;28;20626;-69
2022/09/28 12:12:31;;;;;;;0.13;0.10;;;;;;;;;;4987078;28;20235;-69
2022/09/28 12:14:59;;;;;;;0.30;0.20;;;;;;;;;;4983708;28;20203;-69
2022/09/28 12:17:47;;;;;;;0.13;0.10;;;;;;;;;;4983226;28;20199;-69
2022/09/28 12:20:15;;;;;;;1.75;0.20;;;;;;;;;;4994484;28;20187;-69
2022/09/28 12:22:43;;;;;;;1.30;0.20;;;;;;;;;;4955585;28;1089351;-70
2022/09/28 12:25:18;;;;;;;2.75;0.10;;;;;;;;;;4991903;28;20609;-70
2022/09/28 12:27:47;;;;;;;0.60;0.30;;;;;;;;;;4983184;28;20214;-69
2022/09/28 12:30:20;;;;;;;1.60;0.63;;;;;;;;;;4989485;28;20227;-69
2022/09/28 12:32:47;;;;;;;1.08;0.28;;;;;;;;;;4986061;28;20196;-70
2022/09/28 12:35:14;;;;;;;0.75;0.38;;;;;;;;;;4989403;28;20180;-70
2022/09/28 12:37:49;;;;;;;0.70;0.10;;;;;;;;;;4991343;28;20175;-69
2022/09/28 12:40:17;;;;;;;0.47;0.30;;;;;;;;;;4990994;28;20568;-68
2022/09/28 12:42:58;;;;;;;0.95;0.35;;;;;;;;;;4974462;28;20227;-69
2022/09/28 12:45:35;;;;;;;0.85;0.55;;;;;;;;;;4991580;28;20180;-69
2022/09/28 12:48:03;;;;;;;1.90;0.25;;;;;;;;;;4988079;28;20270;-69
2022/09/28 12:50:31;;;;;;;2.30;0.20;;;;;;;;;;4982426;28;20180;-69
2022/09/28 12:53:02;;;;;;;0.82;0.30;;;;;;;;;;4986822;28;20257;-70
2022/09/28 12:55:34;;;;;;;1.83;0.55;;;;;;;;;;4986496;28;20191;-69
2022/09/28 12:58:00;;;;;;;1.33;0.63;;;;;;;;;;4967254;28;20259;-69
2022/09/28 13:00:31;;;;;;;6.82;1.85;;;;;;;;;;4987447;28;20318;-69
2022/09/28 13:03:08;;;;;;;0.77;0.40;;;;;;;;;;4986804;28;20615;-69
2022/09/28 13:05:43;;;;;;;0.45;0.40;;;;;;;;;;4989286;28;20671;-69
2022/09/28 13:08:27;;;;;;;3.20;0.60;;;;;;;;;;4986079;28;20188;-68
2022/09/28 13:11:07;;;;;;;1.48;0.60;;;;;;;;;;4990066;28;20179;-68
2022/09/28 13:13:36;;;;;;;1.90;0.40;;;;;;;;;;4990624;28;20285;-69
2022/09/28 13:16:07;;;;;;;0.63;0.40;;;;;;;;;;4991968;28;20188;-69
2022/09/28 13:18:39;;;;;;;0.57;0.20;;;;;;;;;;4991291;28;20599;-69
2022/09/28 13:21:12;;;;;;;0.30;0.20;;;;;;;;;;4987651;28;20173;-69
2022/09/28 13:23:40;;;;;;;0.80;0.20;;;;;;;;;;4997012;28;20270;-69
2022/09/28 13:26:09;;;;;;;1.13;0.50;;;;;;;;;;4991587;28;20263;-69
2022/09/28 13:28:36;;;;;;;0.55;0.43;;;;;;;;;;4989267;28;20176;-69
2022/09/28 13:31:02;;;;;;;0.40;0.22;;;;;;;;;;4985971;28;20181;-69
2022/09/28 13:33:29;;;;;;;0.20;0.15;;;;;;;;;;4986590;28;20308;-69
2022/09/28 13:35:55;;;;;;;0.45;0.20;;;;;;;;;;4988252;28;20178;-69
2022/09/28 13:38:20;;;;;;;0.40;0.25;;;;;;;;;;4987798;28;20176;-69
2022/09/28 13:41:04;;;;;;;2.20;0.50;;;;;;;;;;4993826;28;20263;-69
2022/09/28 13:43:35;;;;;;;1.35;0.40;;;;;;;;;;4988998;28;20487;-69
2022/09/28 13:46:07;;;;;;;1.48;0.32;;;;;;;;;;4983398;28;20172;-69
2022/09/28 13:48:41;;;;;;;0.45;0.10;;;;;;;;;;4990184;28;20223;-69
2022/09/28 13:51:09;;;;;;;0.68;0.30;;;;;;;;;;4983461;28;20179;-69
2022/09/28 13:53:43;;;;;;;0.13;0.10;;;;;;;;;;4986328;28;20207;-69
2022/09/28 13:56:29;;;;;;;0.10;0.10;;;;;;;;;;4987523;28;20214;-69
2022/09/28 13:59:13;;;;;;;0.40;0.10;;;;;;;;;;4944649;28;20501;-69
2022/09/28 14:01:39;;;;;;;0.13;0.10;;;;;;;;;;4985440;28;20179;-69
2022/09/28 14:04:17;;;;;;;0.52;0.10;;;;;;;;;;4987131;28;20175;-68
2022/09/28 14:06:43;;;;;;;0.70;0.20;;;;;;;;;;4987462;28;20176;-69
2022/09/28 14:09:11;;;;;;;0.32;0.20;;;;;;;;;;4990374;28;20207;-69
2022/09/28 14:11:41;;;;;;;0.52;0.20;;;;;;;;;;4989439;28;20187;-69
2022/09/28 14:14:06;;;;;;;0.47;0.30;;;;;;;;;;4984003;28;20206;-69
2022/09/28 14:16:32;;;;;;;0.30;0.30;;;;;;;;;;4972914;28;20190;-69
2022/09/28 14:19:07;;;;;;;0.65;0.20;;;;;;;;;;4989254;28;20175;-69
2022/09/28 14:21:50;;;;;;;3.03;0.32;;;;;;;;;;4987907;28;20171;-69
2022/09/28 14:24:22;;;;;;;0.20;0.20;;;;;;;;;;4989020;28;20219;-69
2022/09/28 14:27:02;;;;;;;0.43;0.20;;;;;;;;;;4986522;28;20215;-68
2022/09/28 14:29:37;;;;;;;1.15;0.25;;;;;;;;;;4983143;28;20180;-69
2022/09/28 14:32:23;;;;;;;1.05;0.40;;;;;;;;;;4991457;28;20199;-69
2022/09/28 14:34:56;;;;;;;0.30;0.20;;;;;;;;;;4984047;28;20212;-69
2022/09/28 14:43:22;;;;;;;0.52;0.30;;;;;;;;;;4988999;28;20324;-69
2022/09/28 14:45:48;;;;;;;0.43;0.20;;;;;;;;;;4984914;28;20183;-69
2022/09/28 14:48:17;;;;;;;0.20;0.15;;;;;;;;;;4987091;28;20184;-69
2022/09/28 14:50:43;;;;;;;1.75;0.30;;;;;;;;;;4993423;28;20721;-68
2022/09/28 14:53:19;;;;;;;1.02;0.93;;;;;;;;;;4983637;28;20241;-72
2022/09/28 14:55:49;;;;;;;0.88;0.22;;;;;;;;;;4987298;28;20190;-69
2022/09/28 14:58:16;;;;;;;3.92;0.17;;;;;;;;;;4985982;28;20183;-69
2022/09/28 15:00:42;;;;;;;0.73;0.17;;;;;;;;;;4992627;28;20683;-69
2022/09/28 15:03:09;;;;;;;0.30;0.20;;;;;;;;;;4990299;28;20207;-69
2022/09/28 15:05:40;;;;;;;0.38;0.20;;;;;;;;;;4983625;28;20674;-69